sensor_id;sensor_type;location;lat;lon;timestamp;P1;durP1;ratioP1;P2;durP2;ratioP2
8100;SDS011;4093;53.470;9.832;2022-12-18T00:01:21;8.93;;;5.97;;
8100;SDS011;4093;53.470;9.832;2022-12-18T00:03:50;8.43;;;6.17;;
8100;SDS011;4093;53.470;9.832;2022-12-18T00:06:19;7.97;;;6.13;;
8100;SDS011;4093;53.470;9.832;2022-12-18T00:08:48;10.67;;;6.43;;
8100;SDS011;4093;53.470;9.832;2022-12-18T00:11:18;9.43;;;5.37;;
8100;SDS011;4093;53.470;9.832;2022-12-18T00:13:48;11.30;;;6.23;;
8100;SDS011;4093;53.470;9.832;2022-12-18T00:16:17;8.10;;;5.47;;
8100;SDS011;4093;53.470;9.832;2022-12-18T00:18:48;9.73;;;5.70;;
8100;SDS011;4093;53.470;9.832;2022-12-18T00:21:18;11.30;;;6.60;;
8100;SDS011;4093;53.470;9.832;2022-12-18T00:23:46;7.67;;;5.47;;
8100;SDS011;4093;53.470;9.832;2022-12-18T00:26:16;8.27;;;5.73;;
8100;SDS011;4093;53.470;9.832;2022-12-18T00:28:50;10.60;;;5.97;;
8100;SDS011;4093;53.470;9.832;2022-12-18T00:31:20;9.00;;;6.00;;
8100;SDS011;4093;53.470;9.832;2022-12-18T00:33:49;9.57;;;6.60;;
8100;SDS011;4093;53.470;9.832;2022-12-18T00:36:21;10.60;;;6.23;;
8100;SDS011;4093;53.470;9.832;2022-12-18T00:38:50;7.13;;;5.60;;
8100;SDS011;4093;53.470;9.832;2022-12-18T00:41:18;12.37;;;6.70;;
8100;SDS011;4093;53.470;9.832;2022-12-18T00:44:02;10.30;;;6.03;;
8100;SDS011;4093;53.470;9.832;2022-12-18T00:46:31;12.37;;;6.03;;
8100;SDS011;4093;53.470;9.832;2022-12-18T00:48:59;9.37;;;6.57;;
8100;SDS011;4093;53.470;9.832;2022-12-18T00:51:26;10.33;;;6.10;;
8100;SDS011;4093;53.470;9.832;2022-12-18T00:53:54;9.10;;;6.00;;
8100;SDS011;4093;53.470;9.832;2022-12-18T00:56:23;10.07;;;6.27;;
8100;SDS011;4093;53.470;9.832;2022-12-18T00:58:51;9.37;;;5.87;;
8100;SDS011;4093;53.470;9.832;2022-12-18T01:01:20;11.60;;;6.10;;
8100;SDS011;4093;53.470;9.832;2022-12-18T01:03:48;10.40;;;5.63;;
8100;SDS011;4093;53.470;9.832;2022-12-18T01:06:16;8.70;;;5.47;;
8100;SDS011;4093;53.470;9.832;2022-12-18T01:08:44;9.77;;;5.47;;
8100;SDS011;4093;53.470;9.832;2022-12-18T01:11:13;8.90;;;5.93;;
8100;SDS011;4093;53.470;9.832;2022-12-18T01:13:43;9.93;;;6.50;;
8100;SDS011;4093;53.470;9.832;2022-12-18T01:16:10;8.77;;;5.93;;
8100;SDS011;4093;53.470;9.832;2022-12-18T01:18:40;9.90;;;6.00;;
8100;SDS011;4093;53.470;9.832;2022-12-18T01:21:09;9.63;;;6.17;;
8100;SDS011;4093;53.470;9.832;2022-12-18T01:23:38;8.73;;;5.07;;
8100;SDS011;4093;53.470;9.832;2022-12-18T01:26:07;8.17;;;5.70;;
8100;SDS011;4093;53.470;9.832;2022-12-18T01:28:36;8.67;;;5.03;;
8100;SDS011;4093;53.470;9.832;2022-12-18T01:31:12;9.80;;;5.70;;
8100;SDS011;4093;53.470;9.832;2022-12-18T01:33:43;6.97;;;4.70;;
8100;SDS011;4093;53.470;9.832;2022-12-18T01:36:15;9.30;;;5.70;;
8100;SDS011;4093;53.470;9.832;2022-12-18T01:38:45;10.10;;;6.17;;
8100;SDS011;4093;53.470;9.832;2022-12-18T01:41:14;7.53;;;5.00;;
8100;SDS011;4093;53.470;9.832;2022-12-18T01:43:44;8.47;;;5.33;;
8100;SDS011;4093;53.470;9.832;2022-12-18T01:46:14;8.97;;;5.07;;
8100;SDS011;4093;53.470;9.832;2022-12-18T01:48:44;8.00;;;5.47;;
8100;SDS011;4093;53.470;9.832;2022-12-18T01:51:14;7.00;;;5.10;;
8100;SDS011;4093;53.470;9.832;2022-12-18T01:53:42;7.70;;;5.10;;
8100;SDS011;4093;53.470;9.832;2022-12-18T01:56:12;8.17;;;5.37;;
8100;SDS011;4093;53.470;9.832;2022-12-18T01:58:47;8.00;;;4.83;;
8100;SDS011;4093;53.470;9.832;2022-12-18T02:01:20;7.30;;;4.80;;
8100;SDS011;4093;53.470;9.832;2022-12-18T02:03:50;11.10;;;6.20;;
8100;SDS011;4093;53.470;9.832;2022-12-18T02:06:19;8.87;;;5.47;;
8100;SDS011;4093;53.470;9.832;2022-12-18T02:08:58;7.63;;;5.20;;
8100;SDS011;4093;53.470;9.832;2022-12-18T02:11:39;6.43;;;4.77;;
8100;SDS011;4093;53.470;9.832;2022-12-18T02:14:16;7.47;;;4.70;;
8100;SDS011;4093;53.470;9.832;2022-12-18T02:16:52;8.43;;;4.30;;
8100;SDS011;4093;53.470;9.832;2022-12-18T02:19:32;5.90;;;4.57;;
8100;SDS011;4093;53.470;9.832;2022-12-18T02:22:13;6.90;;;4.93;;
8100;SDS011;4093;53.470;9.832;2022-12-18T02:24:54;10.07;;;5.33;;
8100;SDS011;4093;53.470;9.832;2022-12-18T02:27:35;8.17;;;4.93;;
8100;SDS011;4093;53.470;9.832;2022-12-18T02:30:06;8.70;;;5.40;;
8100;SDS011;4093;53.470;9.832;2022-12-18T02:32:36;7.60;;;5.03;;
8100;SDS011;4093;53.470;9.832;2022-12-18T02:35:13;7.77;;;4.77;;
8100;SDS011;4093;53.470;9.832;2022-12-18T02:37:44;8.47;;;5.17;;
8100;SDS011;4093;53.470;9.832;2022-12-18T02:40:14;7.77;;;5.20;;
8100;SDS011;4093;53.470;9.832;2022-12-18T02:42:45;9.23;;;5.00;;
8100;SDS011;4093;53.470;9.832;2022-12-18T02:45:13;7.47;;;4.83;;
8100;SDS011;4093;53.470;9.832;2022-12-18T02:47:42;10.57;;;5.33;;
8100;SDS011;4093;53.470;9.832;2022-12-18T02:50:13;7.20;;;4.73;;
8100;SDS011;4093;53.470;9.832;2022-12-18T02:52:52;6.33;;;5.00;;
8100;SDS011;4093;53.470;9.832;2022-12-18T02:55:29;7.87;;;5.60;;
8100;SDS011;4093;53.470;9.832;2022-12-18T02:58:11;11.30;;;7.77;;
8100;SDS011;4093;53.470;9.832;2022-12-18T03:00:47;12.37;;;7.90;;
8100;SDS011;4093;53.470;9.832;2022-12-18T03:03:23;13.27;;;7.07;;
8100;SDS011;4093;53.470;9.832;2022-12-18T03:05:56;10.20;;;7.27;;
8100;SDS011;4093;53.470;9.832;2022-12-18T03:08:29;13.17;;;7.30;;
8100;SDS011;4093;53.470;9.832;2022-12-18T03:11:02;12.63;;;7.03;;
8100;SDS011;4093;53.470;9.832;2022-12-18T03:13:34;9.37;;;5.23;;
8100;SDS011;4093;53.470;9.832;2022-12-18T03:16:05;12.17;;;5.87;;
8100;SDS011;4093;53.470;9.832;2022-12-18T03:18:35;11.40;;;6.70;;
8100;SDS011;4093;53.470;9.832;2022-12-18T03:21:06;11.47;;;6.93;;
8100;SDS011;4093;53.470;9.832;2022-12-18T03:23:38;12.40;;;7.33;;
8100;SDS011;4093;53.470;9.832;2022-12-18T03:26:12;10.43;;;7.00;;
8100;SDS011;4093;53.470;9.832;2022-12-18T03:28:46;12.97;;;7.93;;
8100;SDS011;4093;53.470;9.832;2022-12-18T03:31:18;11.17;;;7.00;;
8100;SDS011;4093;53.470;9.832;2022-12-18T03:33:51;11.73;;;7.07;;
8100;SDS011;4093;53.470;9.832;2022-12-18T03:36:20;13.73;;;8.03;;
8100;SDS011;4093;53.470;9.832;2022-12-18T03:38:50;16.13;;;8.30;;
8100;SDS011;4093;53.470;9.832;2022-12-18T03:41:19;11.93;;;7.53;;
8100;SDS011;4093;53.470;9.832;2022-12-18T03:43:58;9.93;;;6.83;;
8100;SDS011;4093;53.470;9.832;2022-12-18T03:46:38;10.77;;;7.53;;
8100;SDS011;4093;53.470;9.832;2022-12-18T03:49:13;8.70;;;5.87;;
8100;SDS011;4093;53.470;9.832;2022-12-18T03:51:48;14.07;;;6.10;;
8100;SDS011;4093;53.470;9.832;2022-12-18T03:54:21;10.27;;;5.83;;
8100;SDS011;4093;53.470;9.832;2022-12-18T03:56:53;9.87;;;5.20;;
8100;SDS011;4093;53.470;9.832;2022-12-18T03:59:26;10.63;;;6.10;;
8100;SDS011;4093;53.470;9.832;2022-12-18T04:01:56;11.70;;;5.30;;
8100;SDS011;4093;53.470;9.832;2022-12-18T04:04:27;8.23;;;4.83;;
8100;SDS011;4093;53.470;9.832;2022-12-18T04:06:56;7.77;;;4.27;;
8100;SDS011;4093;53.470;9.832;2022-12-18T04:09:25;5.97;;;4.03;;
8100;SDS011;4093;53.470;9.832;2022-12-18T04:11:54;6.33;;;4.60;;
8100;SDS011;4093;53.470;9.832;2022-12-18T04:14:22;5.50;;;3.97;;
8100;SDS011;4093;53.470;9.832;2022-12-18T04:16:51;6.53;;;4.50;;
8100;SDS011;4093;53.470;9.832;2022-12-18T04:19:19;6.50;;;4.50;;
8100;SDS011;4093;53.470;9.832;2022-12-18T04:21:47;5.47;;;4.00;;
8100;SDS011;4093;53.470;9.832;2022-12-18T04:24:15;5.77;;;4.07;;
8100;SDS011;4093;53.470;9.832;2022-12-18T04:26:42;6.67;;;4.07;;
8100;SDS011;4093;53.470;9.832;2022-12-18T04:29:10;6.07;;;4.20;;
8100;SDS011;4093;53.470;9.832;2022-12-18T04:31:38;6.40;;;4.30;;
8100;SDS011;4093;53.470;9.832;2022-12-18T04:34:07;5.67;;;4.40;;
8100;SDS011;4093;53.470;9.832;2022-12-18T04:36:35;6.93;;;4.60;;
8100;SDS011;4093;53.470;9.832;2022-12-18T04:39:03;6.70;;;4.17;;
8100;SDS011;4093;53.470;9.832;2022-12-18T04:41:30;5.93;;;4.17;;
8100;SDS011;4093;53.470;9.832;2022-12-18T04:43:58;6.50;;;4.60;;
8100;SDS011;4093;53.470;9.832;2022-12-18T04:46:26;5.90;;;4.43;;
8100;SDS011;4093;53.470;9.832;2022-12-18T04:48:54;7.77;;;4.43;;
8100;SDS011;4093;53.470;9.832;2022-12-18T04:51:23;6.10;;;4.47;;
8100;SDS011;4093;53.470;9.832;2022-12-18T04:53:52;5.23;;;4.60;;
8100;SDS011;4093;53.470;9.832;2022-12-18T04:56:19;6.57;;;4.13;;
8100;SDS011;4093;53.470;9.832;2022-12-18T04:58:48;6.57;;;4.30;;
8100;SDS011;4093;53.470;9.832;2022-12-18T05:01:16;7.30;;;4.40;;
8100;SDS011;4093;53.470;9.832;2022-12-18T05:03:45;5.17;;;3.90;;
8100;SDS011;4093;53.470;9.832;2022-12-18T05:06:13;9.03;;;4.73;;
8100;SDS011;4093;53.470;9.832;2022-12-18T05:08:42;7.47;;;5.00;;
8100;SDS011;4093;53.470;9.832;2022-12-18T05:11:12;5.63;;;4.50;;
8100;SDS011;4093;53.470;9.832;2022-12-18T05:13:42;5.73;;;4.43;;
8100;SDS011;4093;53.470;9.832;2022-12-18T05:16:09;7.30;;;4.10;;
8100;SDS011;4093;53.470;9.832;2022-12-18T05:18:38;5.53;;;4.17;;
8100;SDS011;4093;53.470;9.832;2022-12-18T05:21:06;7.60;;;4.10;;
8100;SDS011;4093;53.470;9.832;2022-12-18T05:23:35;7.37;;;4.20;;
8100;SDS011;4093;53.470;9.832;2022-12-18T05:26:05;8.47;;;4.60;;
8100;SDS011;4093;53.470;9.832;2022-12-18T05:28:34;7.43;;;5.47;;
8100;SDS011;4093;53.470;9.832;2022-12-18T05:31:03;6.40;;;4.27;;
8100;SDS011;4093;53.470;9.832;2022-12-18T05:33:33;7.20;;;4.67;;
8100;SDS011;4093;53.470;9.832;2022-12-18T05:36:02;5.17;;;4.17;;
8100;SDS011;4093;53.470;9.832;2022-12-18T05:38:33;8.00;;;4.27;;
8100;SDS011;4093;53.470;9.832;2022-12-18T05:41:01;5.60;;;3.70;;
8100;SDS011;4093;53.470;9.832;2022-12-18T05:43:31;6.93;;;4.17;;
8100;SDS011;4093;53.470;9.832;2022-12-18T05:46:03;9.27;;;6.00;;
8100;SDS011;4093;53.470;9.832;2022-12-18T05:48:31;6.20;;;4.47;;
8100;SDS011;4093;53.470;9.832;2022-12-18T05:51:03;7.73;;;4.60;;
8100;SDS011;4093;53.470;9.832;2022-12-18T05:53:32;7.73;;;4.90;;
8100;SDS011;4093;53.470;9.832;2022-12-18T05:56:01;5.43;;;4.40;;
8100;SDS011;4093;53.470;9.832;2022-12-18T05:58:31;7.07;;;5.07;;
8100;SDS011;4093;53.470;9.832;2022-12-18T06:01:05;6.70;;;4.40;;
8100;SDS011;4093;53.470;9.832;2022-12-18T06:03:34;6.33;;;4.30;;
8100;SDS011;4093;53.470;9.832;2022-12-18T06:06:02;6.73;;;3.93;;
8100;SDS011;4093;53.470;9.832;2022-12-18T06:08:30;6.30;;;4.70;;
8100;SDS011;4093;53.470;9.832;2022-12-18T06:10:58;5.47;;;4.07;;
8100;SDS011;4093;53.470;9.832;2022-12-18T06:13:26;5.33;;;3.90;;
8100;SDS011;4093;53.470;9.832;2022-12-18T06:15:55;6.40;;;4.30;;
8100;SDS011;4093;53.470;9.832;2022-12-18T06:18:22;6.07;;;4.20;;
8100;SDS011;4093;53.470;9.832;2022-12-18T06:20:54;4.83;;;4.23;;
8100;SDS011;4093;53.470;9.832;2022-12-18T06:23:22;10.07;;;4.60;;
8100;SDS011;4093;53.470;9.832;2022-12-18T06:25:50;6.30;;;5.00;;
8100;SDS011;4093;53.470;9.832;2022-12-18T06:28:19;7.97;;;6.70;;
8100;SDS011;4093;53.470;9.832;2022-12-18T06:30:47;15.23;;;9.07;;
8100;SDS011;4093;53.470;9.832;2022-12-18T06:33:16;27.93;;;12.07;;
8100;SDS011;4093;53.470;9.832;2022-12-18T06:35:44;19.83;;;10.20;;
8100;SDS011;4093;53.470;9.832;2022-12-18T06:38:13;34.50;;;15.63;;
8100;SDS011;4093;53.470;9.832;2022-12-18T06:40:40;25.03;;;11.57;;
8100;SDS011;4093;53.470;9.832;2022-12-18T06:43:08;12.90;;;6.80;;
8100;SDS011;4093;53.470;9.832;2022-12-18T06:45:36;12.17;;;7.23;;
8100;SDS011;4093;53.470;9.832;2022-12-18T06:48:04;12.13;;;6.60;;
8100;SDS011;4093;53.470;9.832;2022-12-18T06:50:33;10.23;;;5.70;;
8100;SDS011;4093;53.470;9.832;2022-12-18T06:53:00;7.03;;;4.60;;
8100;SDS011;4093;53.470;9.832;2022-12-18T06:55:29;11.00;;;6.07;;
8100;SDS011;4093;53.470;9.832;2022-12-18T06:57:57;5.87;;;4.50;;
8100;SDS011;4093;53.470;9.832;2022-12-18T07:00:24;7.10;;;5.00;;
8100;SDS011;4093;53.470;9.832;2022-12-18T07:02:52;6.47;;;4.90;;
8100;SDS011;4093;53.470;9.832;2022-12-18T07:05:20;6.13;;;4.50;;
8100;SDS011;4093;53.470;9.832;2022-12-18T07:07:49;6.07;;;4.43;;
8100;SDS011;4093;53.470;9.832;2022-12-18T07:10:17;10.10;;;5.10;;
8100;SDS011;4093;53.470;9.832;2022-12-18T07:12:45;7.77;;;4.90;;
8100;SDS011;4093;53.470;9.832;2022-12-18T07:15:13;8.63;;;5.40;;
8100;SDS011;4093;53.470;9.832;2022-12-18T07:17:40;9.23;;;5.57;;
8100;SDS011;4093;53.470;9.832;2022-12-18T07:20:09;8.87;;;5.53;;
8100;SDS011;4093;53.470;9.832;2022-12-18T07:22:37;9.13;;;5.80;;
8100;SDS011;4093;53.470;9.832;2022-12-18T07:25:07;12.40;;;7.00;;
8100;SDS011;4093;53.470;9.832;2022-12-18T07:27:35;15.30;;;8.30;;
8100;SDS011;4093;53.470;9.832;2022-12-18T07:30:03;9.63;;;7.10;;
8100;SDS011;4093;53.470;9.832;2022-12-18T07:32:31;10.83;;;7.67;;
8100;SDS011;4093;53.470;9.832;2022-12-18T07:34:59;15.20;;;7.17;;
8100;SDS011;4093;53.470;9.832;2022-12-18T07:37:27;16.90;;;9.97;;
8100;SDS011;4093;53.470;9.832;2022-12-18T07:39:54;10.23;;;6.83;;
8100;SDS011;4093;53.470;9.832;2022-12-18T07:42:23;20.23;;;10.47;;
8100;SDS011;4093;53.470;9.832;2022-12-18T07:44:57;12.63;;;6.33;;
8100;SDS011;4093;53.470;9.832;2022-12-18T07:47:25;18.60;;;10.27;;
8100;SDS011;4093;53.470;9.832;2022-12-18T07:49:54;25.60;;;11.13;;
8100;SDS011;4093;53.470;9.832;2022-12-18T07:52:22;13.73;;;9.73;;
8100;SDS011;4093;53.470;9.832;2022-12-18T07:54:51;25.27;;;13.23;;
8100;SDS011;4093;53.470;9.832;2022-12-18T07:57:19;33.53;;;13.50;;
8100;SDS011;4093;53.470;9.832;2022-12-18T08:00:09;40.53;;;13.53;;
8100;SDS011;4093;53.470;9.832;2022-12-18T08:02:38;38.27;;;13.37;;
8100;SDS011;4093;53.470;9.832;2022-12-18T08:05:07;43.70;;;14.47;;
8100;SDS011;4093;53.470;9.832;2022-12-18T08:07:35;50.73;;;19.33;;
8100;SDS011;4093;53.470;9.832;2022-12-18T08:10:04;39.87;;;14.67;;
8100;SDS011;4093;53.470;9.832;2022-12-18T08:12:32;43.00;;;16.73;;
8100;SDS011;4093;53.470;9.832;2022-12-18T08:15:00;26.60;;;13.27;;
8100;SDS011;4093;53.470;9.832;2022-12-18T08:17:30;36.40;;;16.93;;
8100;SDS011;4093;53.470;9.832;2022-12-18T08:19:58;41.03;;;16.43;;
8100;SDS011;4093;53.470;9.832;2022-12-18T08:22:26;54.50;;;22.33;;
8100;SDS011;4093;53.470;9.832;2022-12-18T08:24:53;15.00;;;8.20;;
8100;SDS011;4093;53.470;9.832;2022-12-18T08:27:22;44.67;;;20.57;;
8100;SDS011;4093;53.470;9.832;2022-12-18T08:29:57;11.53;;;8.50;;
8100;SDS011;4093;53.470;9.832;2022-12-18T08:32:26;17.30;;;10.93;;
8100;SDS011;4093;53.470;9.832;2022-12-18T08:34:59;14.00;;;9.67;;
8100;SDS011;4093;53.470;9.832;2022-12-18T08:37:27;18.13;;;9.87;;
8100;SDS011;4093;53.470;9.832;2022-12-18T08:39:54;15.07;;;9.33;;
8100;SDS011;4093;53.470;9.832;2022-12-18T08:42:22;15.97;;;10.23;;
8100;SDS011;4093;53.470;9.832;2022-12-18T08:45:08;25.87;;;13.57;;
8100;SDS011;4093;53.470;9.832;2022-12-18T08:47:36;17.63;;;11.33;;
8100;SDS011;4093;53.470;9.832;2022-12-18T08:50:05;14.50;;;8.93;;
8100;SDS011;4093;53.470;9.832;2022-12-18T08:52:34;14.80;;;9.80;;
8100;SDS011;4093;53.470;9.832;2022-12-18T08:55:04;16.60;;;9.87;;
8100;SDS011;4093;53.470;9.832;2022-12-18T08:57:32;8.60;;;6.00;;
8100;SDS011;4093;53.470;9.832;2022-12-18T09:00:00;10.43;;;6.43;;
8100;SDS011;4093;53.470;9.832;2022-12-18T09:02:28;10.37;;;6.43;;
8100;SDS011;4093;53.470;9.832;2022-12-18T09:04:56;10.60;;;6.20;;
8100;SDS011;4093;53.470;9.832;2022-12-18T09:07:25;8.70;;;5.97;;
8100;SDS011;4093;53.470;9.832;2022-12-18T09:09:53;8.67;;;5.70;;
8100;SDS011;4093;53.470;9.832;2022-12-18T09:12:21;8.43;;;5.47;;
8100;SDS011;4093;53.470;9.832;2022-12-18T09:14:49;8.63;;;5.97;;
8100;SDS011;4093;53.470;9.832;2022-12-18T09:17:17;10.53;;;5.97;;
8100;SDS011;4093;53.470;9.832;2022-12-18T09:19:45;8.90;;;5.60;;
8100;SDS011;4093;53.470;9.832;2022-12-18T09:22:12;9.23;;;5.67;;
8100;SDS011;4093;53.470;9.832;2022-12-18T09:24:42;8.10;;;5.70;;
8100;SDS011;4093;53.470;9.832;2022-12-18T09:27:09;14.43;;;6.70;;
8100;SDS011;4093;53.470;9.832;2022-12-18T09:29:37;14.33;;;6.83;;
8100;SDS011;4093;53.470;9.832;2022-12-18T09:32:05;15.80;;;7.40;;
8100;SDS011;4093;53.470;9.832;2022-12-18T09:34:33;13.30;;;7.53;;
8100;SDS011;4093;53.470;9.832;2022-12-18T09:37:01;13.17;;;6.20;;
8100;SDS011;4093;53.470;9.832;2022-12-18T09:39:28;9.57;;;5.63;;
8100;SDS011;4093;53.470;9.832;2022-12-18T09:41:58;10.13;;;6.80;;
8100;SDS011;4093;53.470;9.832;2022-12-18T09:44:27;9.00;;;5.47;;
8100;SDS011;4093;53.470;9.832;2022-12-18T09:46:59;12.47;;;6.23;;
8100;SDS011;4093;53.470;9.832;2022-12-18T09:49:34;7.17;;;4.80;;
8100;SDS011;4093;53.470;9.832;2022-12-18T09:52:04;11.30;;;5.93;;
8100;SDS011;4093;53.470;9.832;2022-12-18T09:54:48;10.10;;;5.70;;
8100;SDS011;4093;53.470;9.832;2022-12-18T09:57:21;13.63;;;8.30;;
8100;SDS011;4093;53.470;9.832;2022-12-18T09:59:53;12.30;;;7.70;;
8100;SDS011;4093;53.470;9.832;2022-12-18T10:02:23;8.47;;;6.17;;
8100;SDS011;4093;53.470;9.832;2022-12-18T10:05:03;10.70;;;7.00;;
8100;SDS011;4093;53.470;9.832;2022-12-18T10:07:44;8.80;;;5.90;;
8100;SDS011;4093;53.470;9.832;2022-12-18T10:10:27;7.50;;;5.43;;
8100;SDS011;4093;53.470;9.832;2022-12-18T10:13:05;9.90;;;5.80;;
8100;SDS011;4093;53.470;9.832;2022-12-18T10:15:45;12.27;;;7.27;;
8100;SDS011;4093;53.470;9.832;2022-12-18T10:18:25;8.83;;;5.60;;
8100;SDS011;4093;53.470;9.832;2022-12-18T10:21:06;6.97;;;4.80;;
8100;SDS011;4093;53.470;9.832;2022-12-18T10:23:39;8.17;;;4.80;;
8100;SDS011;4093;53.470;9.832;2022-12-18T10:26:15;6.57;;;4.80;;
8100;SDS011;4093;53.470;9.832;2022-12-18T10:28:44;10.33;;;5.40;;
8100;SDS011;4093;53.470;9.832;2022-12-18T10:31:12;5.13;;;4.63;;
8100;SDS011;4093;53.470;9.832;2022-12-18T10:33:44;6.20;;;4.70;;
8100;SDS011;4093;53.470;9.832;2022-12-18T10:36:12;7.33;;;5.10;;
8100;SDS011;4093;53.470;9.832;2022-12-18T10:38:39;7.80;;;4.80;;
8100;SDS011;4093;53.470;9.832;2022-12-18T10:41:23;8.70;;;5.40;;
8100;SDS011;4093;53.470;9.832;2022-12-18T10:44:11;8.47;;;4.90;;
8100;SDS011;4093;53.470;9.832;2022-12-18T10:46:43;8.80;;;4.70;;
8100;SDS011;4093;53.470;9.832;2022-12-18T10:49:18;6.83;;;4.57;;
8100;SDS011;4093;53.470;9.832;2022-12-18T10:51:49;8.47;;;5.20;;
8100;SDS011;4093;53.470;9.832;2022-12-18T10:54:20;7.23;;;5.10;;
8100;SDS011;4093;53.470;9.832;2022-12-18T10:56:49;10.67;;;5.27;;
8100;SDS011;4093;53.470;9.832;2022-12-18T10:59:18;10.30;;;5.53;;
8100;SDS011;4093;53.470;9.832;2022-12-18T11:01:47;7.20;;;4.60;;
8100;SDS011;4093;53.470;9.832;2022-12-18T11:04:18;4.70;;;4.20;;
8100;SDS011;4093;53.470;9.832;2022-12-18T11:06:55;6.10;;;4.50;;
8100;SDS011;4093;53.470;9.832;2022-12-18T11:09:25;6.67;;;4.63;;
8100;SDS011;4093;53.470;9.832;2022-12-18T11:11:54;7.30;;;5.23;;
8100;SDS011;4093;53.470;9.832;2022-12-18T11:14:27;5.40;;;4.30;;
8100;SDS011;4093;53.470;9.832;2022-12-18T11:16:56;7.93;;;5.07;;
8100;SDS011;4093;53.470;9.832;2022-12-18T11:19:46;9.70;;;5.00;;
8100;SDS011;4093;53.470;9.832;2022-12-18T11:22:21;8.50;;;4.83;;
8100;SDS011;4093;53.470;9.832;2022-12-18T11:24:53;6.60;;;4.47;;
8100;SDS011;4093;53.470;9.832;2022-12-18T11:27:47;6.53;;;4.93;;
8100;SDS011;4093;53.470;9.832;2022-12-18T11:30:22;6.47;;;4.77;;
8100;SDS011;4093;53.470;9.832;2022-12-18T11:32:52;6.20;;;4.30;;
8100;SDS011;4093;53.470;9.832;2022-12-18T11:35:25;4.90;;;4.27;;
8100;SDS011;4093;53.470;9.832;2022-12-18T11:38:06;5.97;;;4.70;;
8100;SDS011;4093;53.470;9.832;2022-12-18T11:40:45;5.77;;;4.23;;
8100;SDS011;4093;53.470;9.832;2022-12-18T11:43:20;8.43;;;5.23;;
8100;SDS011;4093;53.470;9.832;2022-12-18T11:45:55;8.93;;;4.97;;
8100;SDS011;4093;53.470;9.832;2022-12-18T11:48:27;8.30;;;5.17;;
8100;SDS011;4093;53.470;9.832;2022-12-18T11:50:58;7.70;;;4.90;;
8100;SDS011;4093;53.470;9.832;2022-12-18T11:53:28;6.37;;;4.30;;
8100;SDS011;4093;53.470;9.832;2022-12-18T11:56:05;8.47;;;4.53;;
8100;SDS011;4093;53.470;9.832;2022-12-18T11:58:50;7.50;;;4.37;;
8100;SDS011;4093;53.470;9.832;2022-12-18T12:01:30;6.23;;;4.30;;
8100;SDS011;4093;53.470;9.832;2022-12-18T12:04:20;5.70;;;4.40;;
8100;SDS011;4093;53.470;9.832;2022-12-18T12:07:01;7.87;;;4.80;;
8100;SDS011;4093;53.470;9.832;2022-12-18T12:09:40;8.03;;;5.60;;
8100;SDS011;4093;53.470;9.832;2022-12-18T12:12:23;7.43;;;4.90;;
8100;SDS011;4093;53.470;9.832;2022-12-18T12:15:17;7.63;;;4.50;;
8100;SDS011;4093;53.470;9.832;2022-12-18T12:17:55;8.17;;;4.33;;
8100;SDS011;4093;53.470;9.832;2022-12-18T12:20:39;9.33;;;6.00;;
8100;SDS011;4093;53.470;9.832;2022-12-18T12:23:15;6.30;;;4.10;;
8100;SDS011;4093;53.470;9.832;2022-12-18T12:25:55;7.13;;;4.70;;
8100;SDS011;4093;53.470;9.832;2022-12-18T12:28:35;8.43;;;5.17;;
8100;SDS011;4093;53.470;9.832;2022-12-18T12:31:19;9.67;;;4.70;;
8100;SDS011;4093;53.470;9.832;2022-12-18T12:34:00;7.83;;;4.50;;
8100;SDS011;4093;53.470;9.832;2022-12-18T12:36:40;8.80;;;5.50;;
8100;SDS011;4093;53.470;9.832;2022-12-18T12:39:20;7.03;;;5.23;;
8100;SDS011;4093;53.470;9.832;2022-12-18T12:41:55;8.10;;;5.70;;
8100;SDS011;4093;53.470;9.832;2022-12-18T12:44:42;7.73;;;5.30;;
8100;SDS011;4093;53.470;9.832;2022-12-18T12:47:21;7.30;;;4.83;;
8100;SDS011;4093;53.470;9.832;2022-12-18T12:49:56;10.07;;;6.07;;
8100;SDS011;4093;53.470;9.832;2022-12-18T12:52:28;6.50;;;4.77;;
8100;SDS011;4093;53.470;9.832;2022-12-18T12:55:02;5.77;;;4.33;;
8100;SDS011;4093;53.470;9.832;2022-12-18T12:57:40;8.20;;;4.43;;
8100;SDS011;4093;53.470;9.832;2022-12-18T13:00:14;5.93;;;3.90;;
8100;SDS011;4093;53.470;9.832;2022-12-18T13:02:46;6.07;;;4.70;;
8100;SDS011;4093;53.470;9.832;2022-12-18T13:05:21;6.33;;;4.30;;
8100;SDS011;4093;53.470;9.832;2022-12-18T13:07:59;6.13;;;4.23;;
8100;SDS011;4093;53.470;9.832;2022-12-18T13:10:33;8.33;;;4.60;;
8100;SDS011;4093;53.470;9.832;2022-12-18T13:13:04;6.67;;;4.10;;
8100;SDS011;4093;53.470;9.832;2022-12-18T13:15:36;5.83;;;4.00;;
8100;SDS011;4093;53.470;9.832;2022-12-18T13:18:12;6.03;;;3.33;;
8100;SDS011;4093;53.470;9.832;2022-12-18T13:20:44;5.23;;;3.60;;
8100;SDS011;4093;53.470;9.832;2022-12-18T13:23:31;6.57;;;4.17;;
8100;SDS011;4093;53.470;9.832;2022-12-18T13:28:57;5.13;;;4.30;;
8100;SDS011;4093;53.470;9.832;2022-12-18T13:34:27;8.57;;;4.97;;
8100;SDS011;4093;53.470;9.832;2022-12-18T13:40:01;8.97;;;5.47;;
8100;SDS011;4093;53.470;9.832;2022-12-18T13:42:39;8.47;;;5.60;;
8100;SDS011;4093;53.470;9.832;2022-12-18T13:48:26;9.47;;;5.83;;
8100;SDS011;4093;53.470;9.832;2022-12-18T13:50:56;10.00;;;6.27;;
8100;SDS011;4093;53.470;9.832;2022-12-18T13:53:28;10.50;;;6.23;;
8100;SDS011;4093;53.470;9.832;2022-12-18T13:56:01;9.13;;;6.20;;
8100;SDS011;4093;53.470;9.832;2022-12-18T13:58:30;9.83;;;6.00;;
8100;SDS011;4093;53.470;9.832;2022-12-18T14:00:58;10.63;;;6.23;;
8100;SDS011;4093;53.470;9.832;2022-12-18T14:03:28;10.60;;;6.70;;
8100;SDS011;4093;53.470;9.832;2022-12-18T14:06:01;10.00;;;6.70;;
8100;SDS011;4093;53.470;9.832;2022-12-18T14:08:34;10.87;;;7.00;;
8100;SDS011;4093;53.470;9.832;2022-12-18T14:11:07;14.73;;;7.17;;
8100;SDS011;4093;53.470;9.832;2022-12-18T14:13:48;10.97;;;7.70;;
8100;SDS011;4093;53.470;9.832;2022-12-18T14:16:16;12.90;;;7.93;;
8100;SDS011;4093;53.470;9.832;2022-12-18T14:18:45;15.50;;;7.73;;
8100;SDS011;4093;53.470;9.832;2022-12-18T14:21:19;18.43;;;8.43;;
8100;SDS011;4093;53.470;9.832;2022-12-18T14:24:02;17.87;;;11.77;;
8100;SDS011;4093;53.470;9.832;2022-12-18T14:26:33;20.03;;;11.73;;
8100;SDS011;4093;53.470;9.832;2022-12-18T14:29:10;14.33;;;9.23;;
8100;SDS011;4093;53.470;9.832;2022-12-18T14:31:50;16.67;;;10.47;;
8100;SDS011;4093;53.470;9.832;2022-12-18T14:34:35;16.33;;;9.90;;
8100;SDS011;4093;53.470;9.832;2022-12-18T14:37:03;18.57;;;10.03;;
8100;SDS011;4093;53.470;9.832;2022-12-18T14:39:31;17.67;;;10.47;;
8100;SDS011;4093;53.470;9.832;2022-12-18T14:42:00;20.73;;;11.20;;
8100;SDS011;4093;53.470;9.832;2022-12-18T14:44:28;18.53;;;10.93;;
8100;SDS011;4093;53.470;9.832;2022-12-18T14:47:15;16.80;;;9.80;;
8100;SDS011;4093;53.470;9.832;2022-12-18T14:49:44;18.20;;;9.87;;
8100;SDS011;4093;53.470;9.832;2022-12-18T14:52:17;20.27;;;10.60;;
8100;SDS011;4093;53.470;9.832;2022-12-18T14:54:53;21.70;;;11.47;;
8100;SDS011;4093;53.470;9.832;2022-12-18T14:57:23;24.20;;;12.97;;
8100;SDS011;4093;53.470;9.832;2022-12-18T14:59:52;19.00;;;10.80;;
8100;SDS011;4093;53.470;9.832;2022-12-18T15:02:21;22.93;;;11.80;;
8100;SDS011;4093;53.470;9.832;2022-12-18T15:04:59;20.00;;;11.77;;
8100;SDS011;4093;53.470;9.832;2022-12-18T15:07:39;19.67;;;10.30;;
8100;SDS011;4093;53.470;9.832;2022-12-18T15:10:10;22.20;;;12.60;;
8100;SDS011;4093;53.470;9.832;2022-12-18T15:12:40;23.37;;;12.23;;
8100;SDS011;4093;53.470;9.832;2022-12-18T15:18:14;29.53;;;14.67;;
8100;SDS011;4093;53.470;9.832;2022-12-18T15:20:44;29.73;;;14.47;;
8100;SDS011;4093;53.470;9.832;2022-12-18T15:23:15;28.83;;;15.50;;
8100;SDS011;4093;53.470;9.832;2022-12-18T15:25:46;30.77;;;14.87;;
8100;SDS011;4093;53.470;9.832;2022-12-18T15:28:18;22.90;;;13.17;;
8100;SDS011;4093;53.470;9.832;2022-12-18T15:31:00;24.00;;;14.80;;
8100;SDS011;4093;53.470;9.832;2022-12-18T15:33:31;30.37;;;16.20;;
8100;SDS011;4093;53.470;9.832;2022-12-18T15:36:01;30.50;;;14.60;;
8100;SDS011;4093;53.470;9.832;2022-12-18T15:38:31;27.50;;;14.90;;
8100;SDS011;4093;53.470;9.832;2022-12-18T15:40:59;24.77;;;12.57;;
8100;SDS011;4093;53.470;9.832;2022-12-18T15:43:29;31.53;;;16.47;;
8100;SDS011;4093;53.470;9.832;2022-12-18T15:46:03;28.20;;;14.88;;
8100;SDS011;4093;53.470;9.832;2022-12-18T15:48:33;30.63;;;16.60;;
8100;SDS011;4093;53.470;9.832;2022-12-18T15:51:02;27.60;;;16.00;;